createdAt,value
2022-12-29T00:00:55.392Z,3.20
2022-12-29T00:05:00.677Z,3.30
2022-12-29T00:09:03.843Z,3.30
2022-12-29T00:13:58.279Z,3.40
2022-12-29T00:18:02.715Z,3.40
2022-12-29T00:22:23.057Z,3.40
2022-12-29T00:26:44.524Z,3.50
2022-12-29T00:31:27.483Z,3.50
2022-12-29T00:35:34.452Z,3.50
2022-12-29T00:39:55.103Z,3.60
2022-12-29T00:44:08.549Z,3.60
2022-12-29T00:48:58.954Z,3.60
2022-12-29T00:53:03.347Z,3.50
2022-12-29T00:57:13.628Z,3.50
2022-12-29T01:01:18.510Z,3.50
2022-12-29T01:05:21.833Z,3.50
2022-12-29T01:09:44.933Z,3.60
2022-12-29T01:14:00.030Z,3.60
2022-12-29T01:18:03.086Z,3.60
2022-12-29T01:22:06.275Z,3.60
2022-12-29T01:26:43.892Z,3.60
2022-12-29T01:30:49.681Z,3.60
2022-12-29T01:34:53.116Z,3.60
2022-12-29T01:39:27.330Z,3.50
2022-12-29T01:43:45.769Z,3.50
2022-12-29T01:47:52.513Z,3.50
2022-12-29T01:51:59.630Z,3.50
2022-12-29T01:56:10.554Z,3.50
2022-12-29T02:00:41.940Z,3.50
2022-12-29T02:04:46.131Z,3.50
2022-12-29T02:08:51.584Z,3.60
2022-12-29T02:12:56.129Z,3.50
2022-12-29T02:17:12.511Z,3.50
2022-12-29T02:21:41.443Z,3.40
2022-12-29T02:26:00.466Z,3.40
2022-12-29T02:30:40.656Z,3.40
2022-12-29T02:34:51.077Z,3.40
2022-12-29T02:39:04.064Z,3.40
2022-12-29T02:43:22.163Z,3.50
2022-12-29T02:47:53.829Z,3.50
2022-12-29T02:52:04.701Z,3.50
2022-12-29T02:56:08.176Z,3.60
2022-12-29T03:00:18.192Z,3.60
2022-12-29T03:04:37.435Z,3.70
2022-12-29T03:08:51.659Z,3.80
2022-12-29T03:13:22.216Z,3.80
2022-12-29T03:17:36.929Z,3.90
2022-12-29T03:22:01.829Z,3.90
2022-12-29T03:26:10.639Z,3.90
2022-12-29T03:30:15.083Z,4.00
2022-12-29T03:34:23.713Z,4.00
2022-12-29T03:38:35.767Z,3.90
2022-12-29T03:42:43.384Z,4.00
2022-12-29T03:46:49.000Z,4.00
2022-12-29T03:50:59.486Z,4.00
2022-12-29T03:55:04.176Z,4.00
2022-12-29T03:59:08.352Z,4.10
2022-12-29T04:03:11.853Z,4.10
2022-12-29T04:07:15.024Z,4.20
2022-12-29T04:11:19.907Z,4.20
2022-12-29T04:15:27.518Z,4.30
2022-12-29T04:19:30.880Z,4.30
2022-12-29T04:23:36.036Z,4.30
2022-12-29T04:27:45.842Z,4.30
2022-12-29T04:31:48.960Z,4.30
2022-12-29T04:35:53.298Z,4.30
2022-12-29T04:39:56.345Z,4.30
2022-12-29T04:44:03.352Z,4.20
2022-12-29T04:48:07.446Z,4.30
2022-12-29T04:52:12.885Z,4.30
2022-12-29T04:56:16.626Z,4.30
2022-12-29T05:00:24.405Z,4.30
2022-12-29T05:04:29.387Z,4.30
2022-12-29T05:08:32.712Z,4.20
2022-12-29T05:12:39.547Z,4.10
2022-12-29T05:16:44.018Z,4.00
2022-12-29T05:20:48.000Z,4.00
2022-12-29T05:24:57.297Z,3.90
2022-12-29T05:29:03.229Z,3.90
2022-12-29T05:33:08.665Z,3.90
2022-12-29T05:37:18.268Z,3.90
2022-12-29T05:41:24.767Z,3.80
2022-12-29T05:45:27.834Z,3.80
2022-12-29T05:49:37.149Z,3.70
2022-12-29T05:53:42.009Z,3.70
2022-12-29T05:57:45.199Z,3.70
2022-12-29T06:01:50.525Z,3.80
2022-12-29T06:05:57.433Z,3.80
2022-12-29T06:10:00.779Z,3.90
2022-12-29T06:14:04.109Z,4.00
2022-12-29T06:18:07.286Z,4.00
2022-12-29T06:22:13.292Z,4.00
2022-12-29T06:26:19.144Z,4.00
2022-12-29T06:30:22.542Z,4.00
2022-12-29T06:34:25.824Z,4.00
2022-12-29T06:38:32.132Z,3.90
2022-12-29T06:42:35.468Z,3.90
2022-12-29T06:46:40.508Z,3.90
2022-12-29T06:50:43.787Z,3.80
2022-12-29T06:54:50.249Z,3.70
2022-12-29T06:58:56.437Z,3.60
2022-12-29T07:03:00.500Z,3.50
2022-12-29T07:07:03.937Z,3.40
2022-12-29T07:11:08.548Z,3.40
2022-12-29T07:15:13.072Z,3.30
2022-12-29T07:19:19.001Z,3.30
2022-12-29T07:23:22.006Z,3.30
2022-12-29T07:27:26.469Z,3.20
2022-12-29T07:31:30.759Z,3.20
2022-12-29T07:35:35.404Z,3.20
2022-12-29T07:39:47.993Z,3.20
2022-12-29T07:43:52.501Z,3.20
2022-12-29T07:47:55.881Z,3.30
2022-12-29T07:51:59.374Z,3.40
2022-12-29T07:56:02.442Z,3.40
2022-12-29T08:00:10.983Z,3.50
2022-12-29T08:04:14.332Z,3.60
2022-12-29T08:08:22.546Z,3.70
2022-12-29T08:13:23.599Z,3.80
2022-12-29T08:18:15.982Z,3.90
2022-12-29T08:22:48.211Z,4.00
2022-12-29T08:27:22.184Z,4.10
2022-12-29T08:32:07.978Z,4.20
2022-12-29T08:36:35.682Z,4.40
2022-12-29T08:40:40.424Z,4.60
2022-12-29T08:44:43.836Z,4.70
2022-12-29T08:48:54.310Z,4.80
2022-12-29T08:53:27.540Z,4.90
2022-12-29T08:58:06.608Z,4.90
2022-12-29T09:02:37.510Z,5.00
2022-12-29T09:12:31.522Z,5.20
2022-12-29T09:16:40.415Z,5.30
2022-12-29T09:20:43.563Z,5.40
2022-12-29T09:25:20.987Z,5.50
2022-12-29T09:29:24.416Z,5.60
2022-12-29T09:33:33.664Z,5.70
2022-12-29T09:38:04.902Z,5.70
2022-12-29T09:42:14.067Z,5.90
2022-12-29T09:46:48.598Z,6.00
2022-12-29T09:51:24.183Z,6.10
2022-12-29T09:55:58.128Z,6.20
2022-12-29T10:00:06.677Z,6.30
2022-12-29T10:04:39.654Z,6.60
2022-12-29T10:09:37.914Z,7.10
2022-12-29T10:14:22.609Z,7.50
2022-12-29T10:19:11.708Z,7.60
2022-12-29T10:23:38.352Z,7.90
2022-12-29T10:28:19.618Z,8.30
2022-12-29T10:32:35.157Z,8.50
2022-12-29T10:37:06.596Z,8.60
2022-12-29T10:41:43.239Z,8.60
2022-12-29T10:46:22.440Z,8.70
2022-12-29T10:51:01.958Z,8.90
2022-12-29T10:55:32.454Z,9.00
2022-12-29T10:59:40.497Z,9.10
2022-12-29T11:04:24.675Z,9.30
2022-12-29T11:09:28.815Z,9.60
2022-12-29T11:13:52.573Z,10.00
2022-12-29T11:18:25.481Z,10.30
2022-12-29T11:22:59.456Z,10.60
2022-12-29T11:27:19.008Z,10.80
2022-12-29T11:31:48.727Z,10.90
2022-12-29T11:35:51.877Z,10.90
2022-12-29T11:40:32.097Z,11.00
2022-12-29T11:44:40.632Z,11.30
2022-12-29T11:48:45.804Z,11.80
2022-12-29T11:53:19.797Z,11.90
2022-12-29T11:57:57.873Z,12.00
2022-12-29T12:02:48.208Z,12.20
2022-12-29T12:07:13.644Z,12.30
2022-12-29T12:11:38.041Z,12.40
2022-12-29T12:15:50.153Z,12.50
2022-12-29T12:20:23.143Z,12.50
2022-12-29T12:24:55.964Z,12.40
2022-12-29T12:29:30.816Z,12.40
2022-12-29T12:34:04.857Z,12.40
2022-12-29T12:38:43.808Z,12.40
2022-12-29T12:43:35.395Z,12.40
2022-12-29T12:48:13.663Z,12.40
2022-12-29T12:52:28.507Z,12.40
2022-12-29T12:56:49.888Z,12.40
2022-12-29T13:01:07.561Z,12.50
2022-12-29T13:05:40.572Z,12.60
2022-12-29T13:09:59.057Z,12.60
2022-12-29T13:14:27.774Z,12.60
2022-12-29T13:19:01.163Z,12.70
2022-12-29T13:23:43.427Z,12.70
2022-12-29T13:28:15.965Z,12.80
2022-12-29T13:32:50.155Z,12.80
2022-12-29T13:36:58.332Z,12.80
2022-12-29T13:41:07.437Z,12.80
2022-12-29T13:46:00.159Z,12.70
2022-12-29T13:50:06.040Z,12.60
2022-12-29T13:54:20.318Z,12.70
2022-12-29T13:58:54.589Z,12.60
2022-12-29T14:03:35.685Z,12.60
2022-12-29T14:07:40.714Z,12.50
2022-12-29T14:12:20.638Z,12.50
2022-12-29T14:17:14.932Z,12.40
2022-12-29T14:21:28.884Z,12.40
2022-12-29T14:26:02.212Z,12.30
2022-12-29T14:30:08.359Z,12.30
2022-12-29T14:34:51.927Z,12.30
2022-12-29T14:39:31.587Z,12.20
2022-12-29T14:43:58.520Z,12.20
2022-12-29T14:48:35.531Z,12.10
2022-12-29T14:53:33.507Z,12.10
2022-12-29T14:57:40.046Z,12.00
2022-12-29T15:02:17.615Z,11.90
2022-12-29T15:06:28.895Z,11.90
2022-12-29T15:10:40.723Z,11.90
2022-12-29T15:15:19.715Z,11.80
2022-12-29T15:19:25.990Z,11.80
2022-12-29T15:23:32.462Z,11.70
2022-12-29T15:28:08.621Z,11.60
2022-12-29T15:32:27.758Z,11.60
2022-12-29T15:36:52.539Z,11.50
2022-12-29T15:40:56.559Z,11.40
2022-12-29T15:45:34.259Z,11.30
2022-12-29T15:49:40.356Z,11.20
2022-12-29T15:54:16.467Z,11.00
2022-12-29T15:58:25.403Z,11.00
2022-12-29T16:02:58.800Z,10.80
2022-12-29T16:07:04.163Z,10.70
2022-12-29T16:11:22.824Z,10.60
2022-12-29T16:15:48.095Z,10.50
2022-12-29T16:20:30.555Z,10.50
2022-12-29T16:24:34.994Z,10.50
2022-12-29T16:29:10.420Z,10.60
2022-12-29T16:33:49.618Z,10.60
2022-12-29T16:38:23.632Z,10.60
2022-12-29T16:42:37.387Z,10.60
2022-12-29T16:47:31.239Z,10.50
2022-12-29T16:52:01.803Z,10.70
2022-12-29T16:56:46.838Z,10.70
2022-12-29T17:01:20.485Z,10.60
2022-12-29T17:05:54.173Z,10.50
2022-12-29T17:10:48.021Z,10.40
2022-12-29T17:15:46.601Z,10.30
2022-12-29T17:20:25.793Z,10.20
2022-12-29T17:25:02.735Z,10.20
2022-12-29T17:29:40.586Z,10.30
2022-12-29T17:34:14.256Z,10.30
2022-12-29T17:38:56.585Z,10.40
2022-12-29T17:43:34.606Z,10.40
2022-12-29T17:48:06.963Z,10.50
2022-12-29T17:52:40.846Z,10.60
2022-12-29T17:57:20.421Z,10.70
2022-12-29T18:02:09.582Z,10.80
2022-12-29T18:06:15.165Z,10.90
2022-12-29T18:10:31.614Z,10.80
2022-12-29T18:15:07.380Z,10.80
2022-12-29T18:19:10.528Z,10.70
2022-12-29T18:23:21.005Z,10.60
2022-12-29T18:27:49.065Z,10.50
2022-12-29T18:32:25.628Z,10.30
2022-12-29T18:37:00.144Z,10.30
2022-12-29T18:41:34.549Z,10.30
2022-12-29T18:45:37.739Z,10.30
2022-12-29T18:50:19.504Z,10.30
2022-12-29T18:54:50.267Z,10.20
2022-12-29T18:59:29.212Z,10.20
2022-12-29T19:04:07.359Z,10.10
2022-12-29T19:08:16.487Z,10.00
2022-12-29T19:12:25.031Z,10.00
2022-12-29T19:16:56.139Z,9.90
2022-12-29T19:21:32.949Z,9.90
2022-12-29T19:26:12.594Z,10.00
2022-12-29T19:30:52.165Z,10.10
2022-12-29T19:34:58.608Z,10.10
2022-12-29T19:39:03.772Z,10.20
2022-12-29T19:43:38.527Z,10.20
2022-12-29T19:48:17.691Z,10.10
2022-12-29T19:53:01.867Z,10.10
2022-12-29T19:57:35.842Z,10.00
2022-12-29T20:02:14.203Z,10.00
2022-12-29T20:06:46.569Z,9.90
2022-12-29T20:11:20.835Z,9.80
2022-12-29T20:16:03.980Z,9.80
2022-12-29T20:20:40.704Z,9.70
2022-12-29T20:24:50.118Z,9.70
2022-12-29T20:29:01.309Z,9.70
2022-12-29T20:33:35.092Z,9.70
2022-12-29T20:38:08.919Z,9.70
2022-12-29T20:42:47.611Z,9.70
2022-12-29T20:47:24.039Z,9.70
2022-12-29T20:52:07.358Z,9.70
2022-12-29T20:56:35.260Z,9.70
2022-12-29T21:01:15.768Z,9.60
2022-12-29T21:05:53.712Z,9.60
2022-12-29T21:09:58.291Z,9.50
2022-12-29T21:14:38.507Z,9.40
2022-12-29T21:18:47.682Z,9.50
2022-12-29T21:22:51.066Z,9.50
2022-12-29T21:26:54.111Z,9.50
2022-12-29T21:31:40.771Z,9.60
2022-12-29T21:35:48.385Z,9.60
2022-12-29T21:39:51.624Z,9.70
2022-12-29T21:44:46.231Z,9.70
2022-12-29T21:49:07.819Z,9.80
2022-12-29T21:53:44.377Z,9.80
2022-12-29T21:58:04.631Z,9.90
2022-12-29T22:02:37.315Z,9.80
2022-12-29T22:07:00.532Z,9.70
2022-12-29T22:11:25.834Z,9.70
2022-12-29T22:15:30.992Z,9.60
2022-12-29T22:19:37.314Z,9.60
2022-12-29T22:24:11.024Z,9.40
2022-12-29T22:28:15.722Z,9.40
2022-12-29T22:32:22.270Z,9.40
2022-12-29T22:36:28.615Z,9.30
2022-12-29T22:41:03.001Z,9.30
2022-12-29T22:45:10.872Z,9.20
2022-12-29T22:49:13.884Z,9.10
2022-12-29T22:53:18.655Z,9.00
2022-12-29T22:57:57.679Z,8.90
2022-12-29T23:02:02.297Z,8.80
2022-12-29T23:06:09.474Z,8.80
2022-12-29T23:10:12.538Z,8.70
2022-12-29T23:15:09.913Z,8.60
2022-12-29T23:19:15.643Z,8.60
2022-12-29T23:23:48.896Z,8.60
2022-12-29T23:27:57.569Z,8.60
2022-12-29T23:32:05.169Z,8.50
2022-12-29T23:36:10.184Z,8.30
2022-12-29T23:40:18.179Z,8.30
2022-12-29T23:44:24.392Z,8.20
2022-12-29T23:48:27.680Z,8.20
2022-12-29T23:53:06.168Z,8.10
2022-12-29T23:57:13.954Z,8.00
